createdAt,value
2019-03-21T00:00:51.109Z,57.10
2019-03-21T00:02:25.407Z,56.40
2019-03-21T00:04:02.998Z,62.83
2019-03-21T00:05:37.445Z,73.30
2019-03-21T00:07:11.782Z,87.85
2019-03-21T00:08:47.669Z,104.10
2019-03-21T00:10:30.745Z,100.78
2019-03-21T00:12:11.976Z,112.17
2019-03-21T00:13:46.205Z,110.57
2019-03-21T00:15:22.872Z,110.03
2019-03-21T00:16:56.645Z,95.83
2019-03-21T00:18:30.854Z,94.85
2019-03-21T00:20:10.916Z,90.47
2019-03-21T00:21:45.271Z,78.62
2019-03-21T00:23:19.572Z,80.85
2019-03-21T00:24:53.814Z,71.02
2019-03-21T00:26:28.130Z,76.12
2019-03-21T00:28:02.379Z,67.35
2019-03-21T00:29:37.118Z,50.58
2019-03-21T00:31:11.402Z,43.90
2019-03-21T00:32:45.750Z,43.05
2019-03-21T00:34:20.097Z,38.85
2019-03-21T00:35:54.429Z,37.05
2019-03-21T00:37:31.545Z,39.98
2019-03-21T00:39:08.385Z,36.28
2019-03-21T00:40:47.020Z,36.73
2019-03-21T00:42:21.250Z,39.78
2019-03-21T00:43:55.501Z,35.88
2019-03-21T00:45:29.734Z,34.53
2019-03-21T00:47:04.063Z,37.90
2019-03-21T00:48:38.367Z,36.10
2019-03-21T00:50:15.390Z,34.38
2019-03-21T00:51:49.714Z,38.70
2019-03-21T00:53:23.416Z,37.53
2019-03-21T00:54:57.721Z,41.83
2019-03-21T00:56:32.259Z,38.92
2019-03-21T00:58:06.601Z,39.33
2019-03-21T00:59:40.823Z,41.63
2019-03-21T01:01:15.048Z,37.30
2019-03-21T01:02:49.297Z,39.20
2019-03-21T01:04:25.552Z,36.53
2019-03-21T01:05:59.816Z,37.33
2019-03-21T01:07:34.111Z,35.60
2019-03-21T01:09:11.251Z,54.08
2019-03-21T01:10:45.512Z,55.58
2019-03-21T01:12:20.231Z,45.30
2019-03-21T01:13:54.555Z,46.63
2019-03-21T01:15:28.902Z,45.75
2019-03-21T01:17:02.563Z,47.90
2019-03-21T01:18:45.155Z,48.08
2019-03-21T01:20:19.525Z,38.13
2019-03-21T01:21:53.243Z,43.47
2019-03-21T01:23:27.564Z,42.95
2019-03-21T01:25:01.876Z,46.13
2019-03-21T01:26:36.241Z,51.83
2019-03-21T01:28:11.135Z,49.83
2019-03-21T01:29:46.046Z,48.40
2019-03-21T01:31:20.271Z,41.58
2019-03-21T01:32:54.538Z,42.38
2019-03-21T01:34:28.847Z,44.90
2019-03-21T01:36:04.290Z,39.63
2019-03-21T01:37:38.536Z,47.27
2019-03-21T01:39:12.814Z,40.15
2019-03-21T01:40:55.490Z,43.25
2019-03-21T01:42:29.818Z,61.05
2019-03-21T01:44:03.515Z,73.57
2019-03-21T01:45:37.858Z,74.87
2019-03-21T01:47:12.151Z,74.17
2019-03-21T01:48:46.505Z,66.72
2019-03-21T01:50:22.794Z,67.53
2019-03-21T01:51:56.427Z,66.55
2019-03-21T01:53:30.795Z,68.17
2019-03-21T01:55:08.296Z,82.82
2019-03-21T01:56:42.637Z,70.50
2019-03-21T01:58:17.558Z,61.70
2019-03-21T01:59:52.216Z,61.80
2019-03-21T02:01:26.581Z,61.83
2019-03-21T02:03:00.888Z,66.65
2019-03-21T02:04:35.176Z,63.95
2019-03-21T02:06:09.550Z,65.03
2019-03-21T02:07:43.847Z,60.40
2019-03-21T02:09:18.141Z,63.17
2019-03-21T02:10:52.483Z,57.70
2019-03-21T02:12:26.714Z,53.60
2019-03-21T02:14:01.033Z,49.18
2019-03-21T02:15:35.323Z,51.95
2019-03-21T02:17:09.585Z,42.38
2019-03-21T02:18:45.736Z,51.05
2019-03-21T02:20:22.089Z,50.65
2019-03-21T02:21:56.435Z,52.40
2019-03-21T02:23:30.829Z,53.55
2019-03-21T02:25:10.657Z,58.95
2019-03-21T02:26:44.369Z,60.67
2019-03-21T02:28:18.067Z,70.70
2019-03-21T02:29:52.992Z,65.37
2019-03-21T02:31:27.313Z,74.60
2019-03-21T02:33:04.873Z,67.97
2019-03-21T02:34:39.240Z,67.47
2019-03-21T02:36:14.368Z,80.05
2019-03-21T02:37:48.656Z,71.30
2019-03-21T02:39:22.977Z,75.87
2019-03-21T02:41:03.155Z,72.42
2019-03-21T02:42:37.471Z,74.45
2019-03-21T02:44:11.196Z,79.30
2019-03-21T02:45:45.478Z,80.43
2019-03-21T02:47:19.160Z,79.07
2019-03-21T02:48:53.459Z,84.55
2019-03-21T02:50:31.053Z,87.00
2019-03-21T02:52:05.299Z,93.15
2019-03-21T02:53:39.595Z,78.62
2019-03-21T02:55:13.300Z,99.27
2019-03-21T02:56:47.876Z,93.60
2019-03-21T02:58:22.182Z,98.30
2019-03-21T02:59:56.538Z,105.22
2019-03-21T03:01:31.463Z,93.40
2019-03-21T03:03:06.946Z,99.67
2019-03-21T03:04:41.281Z,104.32
2019-03-21T03:06:15.629Z,103.90
2019-03-21T03:07:49.902Z,100.20
2019-03-21T03:09:24.193Z,105.43
2019-03-21T03:11:00.700Z,97.10
2019-03-21T03:12:34.957Z,85.92
2019-03-21T03:14:09.204Z,81.02
2019-03-21T03:15:43.832Z,81.63
2019-03-21T03:17:18.071Z,76.25
2019-03-21T03:18:52.307Z,81.55
2019-03-21T03:20:26.551Z,87.80
2019-03-21T03:22:00.867Z,78.17
2019-03-21T03:23:35.137Z,98.10
2019-03-21T03:25:11.585Z,111.37
2019-03-21T03:26:45.932Z,92.02
2019-03-21T03:28:25.547Z,97.72
2019-03-21T03:30:00.055Z,89.28
2019-03-21T03:31:34.337Z,94.52
2019-03-21T03:33:09.126Z,77.30
2019-03-21T03:34:43.442Z,84.37
2019-03-21T03:36:17.777Z,69.62
2019-03-21T03:37:52.015Z,87.92
2019-03-21T03:39:26.366Z,87.72
2019-03-21T03:41:06.419Z,101.25
2019-03-21T03:42:40.748Z,92.22
2019-03-21T03:44:14.985Z,92.88
2019-03-21T03:45:49.292Z,92.10
2019-03-21T03:47:23.538Z,83.97
2019-03-21T03:48:57.860Z,88.15
2019-03-21T03:50:32.235Z,77.53
2019-03-21T03:52:06.534Z,73.67
2019-03-21T03:53:42.503Z,72.72
2019-03-21T03:55:20.523Z,67.50
2019-03-21T03:56:54.733Z,70.25
2019-03-21T03:58:46.965Z,59.33
2019-03-21T04:00:22.263Z,70.78
2019-03-21T04:01:57.987Z,78.65
2019-03-21T04:03:32.312Z,84.32
2019-03-21T04:05:09.794Z,83.75
2019-03-21T04:06:46.082Z,78.55
2019-03-21T04:08:20.313Z,105.83
2019-03-21T04:09:54.619Z,99.83
2019-03-21T04:11:28.923Z,93.82
2019-03-21T04:13:03.178Z,81.72
2019-03-21T04:14:37.451Z,85.83
2019-03-21T04:16:11.704Z,81.12
2019-03-21T04:17:45.931Z,79.65
2019-03-21T04:19:20.245Z,84.32
2019-03-21T04:21:03.593Z,84.15
2019-03-21T04:22:37.918Z,81.53
2019-03-21T04:24:12.227Z,87.08
2019-03-21T04:25:49.455Z,82.15
2019-03-21T04:27:23.733Z,79.95
2019-03-21T04:28:57.968Z,78.17
2019-03-21T04:30:32.692Z,68.52
2019-03-21T04:32:06.974Z,75.15
2019-03-21T04:33:42.829Z,85.28
2019-03-21T04:35:17.107Z,77.70
2019-03-21T04:36:51.319Z,76.95
2019-03-21T04:38:25.574Z,81.08
2019-03-21T04:39:59.879Z,84.72
2019-03-21T04:41:33.592Z,85.33
2019-03-21T04:43:07.825Z,80.45
2019-03-21T04:44:44.406Z,84.52
2019-03-21T04:46:18.061Z,98.33
2019-03-21T04:47:52.397Z,103.15
2019-03-21T04:49:27.102Z,100.38
2019-03-21T04:51:01.406Z,111.35
2019-03-21T04:52:35.770Z,110.28
2019-03-21T04:54:10.070Z,90.22
2019-03-21T04:55:44.379Z,87.97
2019-03-21T04:57:18.634Z,88.27
2019-03-21T04:58:52.973Z,156.65
2019-03-21T05:00:39.094Z,115.50
2019-03-21T05:02:13.454Z,285.15
2019-03-21T05:03:47.711Z,105.60
2019-03-21T05:05:22.115Z,83.35
2019-03-21T05:06:56.376Z,84.28
2019-03-21T05:08:30.596Z,114.22
2019-03-21T05:10:07.800Z,147.07
2019-03-21T05:11:42.104Z,147.93
2019-03-21T05:13:16.432Z,81.30
2019-03-21T05:14:50.743Z,90.05
2019-03-21T05:16:24.967Z,82.40
2019-03-21T05:18:04.488Z,79.07
2019-03-21T05:19:38.763Z,68.22
2019-03-21T05:21:15.990Z,65.67
2019-03-21T05:22:50.258Z,75.10
2019-03-21T05:24:24.488Z,79.27
2019-03-21T05:25:58.766Z,85.12
2019-03-21T05:27:32.990Z,70.20
2019-03-21T05:29:07.337Z,77.00
2019-03-21T05:30:53.392Z,79.73
2019-03-21T05:32:27.679Z,76.25
2019-03-21T05:34:02.053Z,86.60
2019-03-21T05:35:36.367Z,90.80
2019-03-21T05:37:10.623Z,80.22
2019-03-21T05:38:44.904Z,83.12
2019-03-21T05:40:21.181Z,71.72
2019-03-21T05:41:55.413Z,83.70
2019-03-21T05:43:45.259Z,88.35
2019-03-21T05:45:21.732Z,86.80
2019-03-21T05:46:56.047Z,86.70
2019-03-21T05:48:30.268Z,83.67
2019-03-21T05:50:07.386Z,92.05
2019-03-21T05:51:42.098Z,86.25
2019-03-21T05:53:16.394Z,98.00
2019-03-21T05:54:50.670Z,93.05
2019-03-21T05:56:25.011Z,116.10
2019-03-21T05:57:59.289Z,118.13
2019-03-21T05:59:33.533Z,99.97
2019-03-21T06:01:12.960Z,109.57
2019-03-21T06:02:47.292Z,103.35
2019-03-21T06:04:21.627Z,98.87
2019-03-21T06:06:01.868Z,110.03
2019-03-21T06:07:38.561Z,95.23
2019-03-21T06:09:18.760Z,123.78
2019-03-21T06:10:52.976Z,114.90
2019-03-21T06:12:27.229Z,111.47
2019-03-21T06:14:01.554Z,96.42
2019-03-21T06:15:38.666Z,86.57
2019-03-21T06:17:12.896Z,85.20
2019-03-21T06:19:05.337Z,100.05
2019-03-21T06:20:59.097Z,100.58
2019-03-21T06:22:45.021Z,102.22
2019-03-21T06:24:43.384Z,122.65
2019-03-21T06:26:44.655Z,130.12
2019-03-21T06:28:18.911Z,142.47
2019-03-21T06:29:53.226Z,201.52
2019-03-21T06:31:27.792Z,114.72
2019-03-21T06:33:02.092Z,129.07
2019-03-21T06:34:36.433Z,100.35
2019-03-21T06:36:10.664Z,93.30
2019-03-21T06:37:45.460Z,113.30
2019-03-21T06:39:19.698Z,108.40
2019-03-21T06:40:54.010Z,88.82
2019-03-21T06:42:27.665Z,86.87
2019-03-21T06:44:01.945Z,101.47
2019-03-21T06:45:47.292Z,92.95
2019-03-21T06:47:12.167Z,79.27
2019-03-21T06:48:47.861Z,83.10
2019-03-21T06:50:22.175Z,93.85
2019-03-21T06:51:56.575Z,95.90
2019-03-21T06:53:31.498Z,91.35
2019-03-21T06:55:06.037Z,81.72
2019-03-21T06:56:40.354Z,76.25
2019-03-21T06:58:14.631Z,82.88
2019-03-21T06:59:50.181Z,76.42
2019-03-21T07:01:24.421Z,72.65
2019-03-21T07:02:58.212Z,83.60
2019-03-21T07:04:32.528Z,68.37
2019-03-21T07:06:06.777Z,80.12
2019-03-21T07:07:41.020Z,166.85
2019-03-21T07:09:15.685Z,65.70
2019-03-21T07:10:50.018Z,74.15
2019-03-21T07:12:24.261Z,83.35
2019-03-21T07:13:58.595Z,73.97
2019-03-21T07:15:32.886Z,67.90
2019-03-21T07:17:07.205Z,70.90
2019-03-21T07:18:41.459Z,85.12
2019-03-21T07:20:15.696Z,83.78
2019-03-21T07:21:50.000Z,88.25
2019-03-21T07:23:24.314Z,100.20
2019-03-21T07:24:59.027Z,92.57
2019-03-21T07:26:33.284Z,100.02
2019-03-21T07:28:07.624Z,105.43
2019-03-21T07:29:41.963Z,98.27
2019-03-21T07:31:16.189Z,89.10
2019-03-21T07:32:50.619Z,88.72
2019-03-21T07:34:24.838Z,81.35
2019-03-21T07:35:59.163Z,76.70
2019-03-21T07:37:33.466Z,80.67
2019-03-21T07:39:08.384Z,80.20
2019-03-21T07:40:42.805Z,66.35
2019-03-21T07:42:17.149Z,47.35
2019-03-21T07:43:51.458Z,59.20
2019-03-21T07:45:25.777Z,60.38
2019-03-21T07:47:11.713Z,60.65
2019-03-21T07:48:36.137Z,54.15
2019-03-21T07:50:14.761Z,49.13
2019-03-21T07:51:50.957Z,52.23
2019-03-21T07:53:25.200Z,55.40
2019-03-21T07:54:59.441Z,48.38
2019-03-21T07:56:33.825Z,49.15
2019-03-21T07:58:08.108Z,59.95
2019-03-21T07:59:42.338Z,45.28
2019-03-21T08:01:16.571Z,56.63
2019-03-21T08:02:50.923Z,54.53
2019-03-21T08:04:25.162Z,58.05
2019-03-21T08:05:59.441Z,35.88
2019-03-21T08:07:33.678Z,32.33
2019-03-21T08:09:08.296Z,28.85
2019-03-21T08:10:42.589Z,28.50
2019-03-21T08:12:16.929Z,31.12
2019-03-21T08:13:51.175Z,32.48
2019-03-21T08:15:25.477Z,34.92
2019-03-21T08:17:00.723Z,37.25
2019-03-21T08:18:34.959Z,34.65
2019-03-21T08:20:11.679Z,34.38
2019-03-21T08:21:45.927Z,40.25
2019-03-21T08:23:20.191Z,32.35
2019-03-21T08:24:54.483Z,38.55
2019-03-21T08:26:28.777Z,43.87
2019-03-21T08:28:03.450Z,36.35
2019-03-21T08:29:37.673Z,35.10
2019-03-21T08:31:14.041Z,31.02
2019-03-21T08:32:48.366Z,39.03
2019-03-21T08:34:22.982Z,33.83
2019-03-21T08:35:57.282Z,35.58
2019-03-21T08:37:31.502Z,36.13
2019-03-21T08:39:07.690Z,33.50
2019-03-21T08:40:42.715Z,32.85
2019-03-21T08:42:17.197Z,30.70
2019-03-21T08:43:51.444Z,43.05
2019-03-21T08:45:25.727Z,86.02
2019-03-21T08:46:59.988Z,38.33
2019-03-21T08:48:34.230Z,32.65
2019-03-21T08:50:11.268Z,37.90
2019-03-21T08:51:45.558Z,31.40
2019-03-21T08:53:19.789Z,31.70
2019-03-21T08:54:54.123Z,31.10
2019-03-21T08:56:28.436Z,31.27
2019-03-21T08:58:02.976Z,35.40
2019-03-21T08:59:37.335Z,28.95
2019-03-21T09:01:11.613Z,32.30
2019-03-21T09:02:45.940Z,35.13
2019-03-21T09:04:20.251Z,31.42
2019-03-21T09:05:54.475Z,30.57
2019-03-21T09:07:28.842Z,31.77
2019-03-21T09:09:04.158Z,30.30
2019-03-21T09:10:38.363Z,28.62
2019-03-21T09:12:12.655Z,27.13
2019-03-21T09:13:47.409Z,28.92
2019-03-21T09:15:21.707Z,28.30
2019-03-21T09:16:55.943Z,31.65
2019-03-21T09:18:30.822Z,30.70
2019-03-21T09:20:07.190Z,33.20
2019-03-21T09:21:41.422Z,32.80
2019-03-21T09:23:15.749Z,37.70
2019-03-21T09:24:49.997Z,35.05
2019-03-21T09:26:24.351Z,33.73
2019-03-21T09:28:02.773Z,27.95
2019-03-21T09:29:34.487Z,27.45
2019-03-21T09:31:08.797Z,30.37
2019-03-21T09:32:43.070Z,27.90
2019-03-21T09:34:17.438Z,31.10
2019-03-21T09:35:51.850Z,29.92
2019-03-21T09:37:26.083Z,28.80
2019-03-21T09:39:00.319Z,33.50
2019-03-21T09:40:34.603Z,36.45
2019-03-21T09:42:08.847Z,29.20
2019-03-21T09:43:43.068Z,31.52
2019-03-21T09:45:17.351Z,28.35
2019-03-21T09:46:51.759Z,37.15
2019-03-21T09:48:26.042Z,30.15
2019-03-21T09:50:00.421Z,29.32
2019-03-21T09:51:34.736Z,29.98
2019-03-21T09:53:09.053Z,30.70
2019-03-21T09:54:43.287Z,30.40
2019-03-21T09:56:17.625Z,26.45
2019-03-21T09:57:51.859Z,28.95
2019-03-21T09:59:26.144Z,28.75
2019-03-21T10:01:00.439Z,28.15
2019-03-21T10:02:34.986Z,28.42
2019-03-21T10:04:09.226Z,29.80
2019-03-21T10:05:43.574Z,25.80
2019-03-21T10:07:17.872Z,26.15
2019-03-21T10:08:52.109Z,24.45
2019-03-21T10:10:29.181Z,26.25
2019-03-21T10:12:03.535Z,26.73
2019-03-21T10:13:37.776Z,32.93
2019-03-21T10:15:12.128Z,29.63
2019-03-21T10:16:46.406Z,26.97
2019-03-21T10:18:20.620Z,26.93
2019-03-21T10:19:54.953Z,29.00
2019-03-21T10:21:29.197Z,26.12
2019-03-21T10:23:03.490Z,29.00
2019-03-21T10:24:37.789Z,31.12
2019-03-21T10:26:12.074Z,30.70
2019-03-21T10:27:46.397Z,27.27
2019-03-21T10:29:20.688Z,25.80
2019-03-21T10:30:57.235Z,24.25
2019-03-21T10:32:31.417Z,26.45
2019-03-21T10:34:05.644Z,23.85
2019-03-21T10:35:39.950Z,24.27
2019-03-21T10:37:14.557Z,23.65
2019-03-21T10:38:48.838Z,23.98
2019-03-21T10:40:23.135Z,21.17
2019-03-21T10:41:57.469Z,22.60
2019-03-21T10:43:31.800Z,25.12
2019-03-21T10:45:07.641Z,26.73
2019-03-21T10:46:42.078Z,27.45
2019-03-21T10:48:16.308Z,25.35
2019-03-21T10:49:50.594Z,24.95
2019-03-21T10:51:24.955Z,25.43
2019-03-21T10:52:59.653Z,28.00
2019-03-21T10:54:33.885Z,27.98
2019-03-21T10:56:08.243Z,38.23
2019-03-21T10:57:42.554Z,29.30
2019-03-21T10:59:16.875Z,36.15
2019-03-21T11:00:52.563Z,41.65
2019-03-21T11:02:27.475Z,64.05
2019-03-21T11:04:01.781Z,50.95
2019-03-21T11:05:36.111Z,31.77
2019-03-21T11:07:09.113Z,32.83
2019-03-21T11:08:43.493Z,30.52
2019-03-21T11:10:17.834Z,40.80
2019-03-21T11:11:52.139Z,38.20
2019-03-21T11:13:26.508Z,31.17
2019-03-21T11:15:00.737Z,34.83
2019-03-21T11:16:35.045Z,49.65
2019-03-21T11:18:09.339Z,30.80
2019-03-21T11:19:43.700Z,25.95
2019-03-21T11:21:18.430Z,25.02
2019-03-21T11:22:52.803Z,27.82
2019-03-21T11:24:27.124Z,32.85
2019-03-21T11:26:01.440Z,30.60
2019-03-21T11:27:35.728Z,31.50
2019-03-21T11:29:10.047Z,25.50
2019-03-21T11:30:44.474Z,24.90
2019-03-21T11:32:18.742Z,24.90
2019-03-21T11:33:53.055Z,29.12
2019-03-21T11:35:27.376Z,30.32
2019-03-21T11:37:01.669Z,26.00
2019-03-21T11:38:36.415Z,33.33
2019-03-21T11:40:10.623Z,28.87
2019-03-21T11:41:44.981Z,24.65
2019-03-21T11:43:19.238Z,24.75
2019-03-21T11:44:53.467Z,37.67
2019-03-21T11:46:27.768Z,33.30
2019-03-21T11:48:02.122Z,25.82
2019-03-21T11:49:36.391Z,37.35
2019-03-21T11:51:10.666Z,25.62
2019-03-21T11:52:44.979Z,37.88
2019-03-21T11:54:19.235Z,33.13
2019-03-21T11:55:53.473Z,39.15
2019-03-21T11:57:27.777Z,37.30
2019-03-21T11:59:02.038Z,27.62
2019-03-21T12:00:43.525Z,25.90
2019-03-21T12:02:12.295Z,25.17
2019-03-21T12:03:46.673Z,28.30
2019-03-21T12:05:20.919Z,26.90
2019-03-21T12:06:55.230Z,27.77
2019-03-21T12:08:29.558Z,26.50
2019-03-21T12:10:04.787Z,43.08
2019-03-21T12:11:40.084Z,24.52
2019-03-21T12:13:14.398Z,20.70
2019-03-21T12:14:48.660Z,22.77
2019-03-21T12:16:22.912Z,25.08
2019-03-21T12:17:57.224Z,26.07
2019-03-21T12:19:31.965Z,45.90
2019-03-21T12:21:06.271Z,22.55
2019-03-21T12:22:40.516Z,27.27
2019-03-21T12:24:14.809Z,20.37
2019-03-21T12:25:49.101Z,27.98
2019-03-21T12:27:23.434Z,23.80
2019-03-21T12:28:58.007Z,20.52
2019-03-21T12:30:39.682Z,24.60
2019-03-21T12:32:13.949Z,25.57
2019-03-21T12:33:48.279Z,16.90
2019-03-21T12:35:22.613Z,21.07
2019-03-21T12:36:57.975Z,16.40
2019-03-21T12:38:32.309Z,22.75
2019-03-21T12:40:09.192Z,27.87
2019-03-21T12:41:43.488Z,29.15
2019-03-21T12:43:17.836Z,23.83
2019-03-21T12:44:52.163Z,23.20
2019-03-21T12:46:26.425Z,23.27
2019-03-21T12:48:00.667Z,22.10
2019-03-21T12:49:34.994Z,20.65
2019-03-21T12:51:09.227Z,18.98
2019-03-21T12:52:43.588Z,19.32
2019-03-21T12:54:19.481Z,19.60
2019-03-21T12:55:53.772Z,26.00
2019-03-21T12:57:28.068Z,19.40
2019-03-21T12:59:02.345Z,23.55
2019-03-21T13:00:40.833Z,22.45
2019-03-21T13:02:15.141Z,20.43
2019-03-21T13:03:49.431Z,21.87
2019-03-21T13:05:31.438Z,19.98
2019-03-21T13:07:05.677Z,20.82
2019-03-21T13:08:39.943Z,22.25
2019-03-21T13:10:14.375Z,21.73
2019-03-21T13:11:48.675Z,23.05
2019-03-21T13:13:22.968Z,25.02
2019-03-21T13:14:57.223Z,20.57
2019-03-21T13:16:31.558Z,21.80
2019-03-21T13:18:07.185Z,26.23
2019-03-21T13:19:41.542Z,22.07
2019-03-21T13:21:15.962Z,20.35
2019-03-21T13:22:53.207Z,24.85
2019-03-21T13:24:26.273Z,21.75
2019-03-21T13:26:00.578Z,31.25
2019-03-21T13:27:34.894Z,20.90
2019-03-21T13:29:09.151Z,21.87
2019-03-21T13:30:43.458Z,17.45
2019-03-21T13:32:17.732Z,19.17
2019-03-21T13:33:52.052Z,15.18
2019-03-21T13:35:32.570Z,20.32
2019-03-21T13:37:02.583Z,22.00
2019-03-21T13:38:36.917Z,17.35
2019-03-21T13:40:11.535Z,14.85
2019-03-21T13:41:45.759Z,18.10
2019-03-21T13:43:20.149Z,18.23
2019-03-21T13:44:56.364Z,17.25
2019-03-21T13:46:30.596Z,17.35
2019-03-21T13:48:05.370Z,16.95
2019-03-21T13:49:39.761Z,21.57
2019-03-21T13:51:14.006Z,17.30
2019-03-21T13:52:48.609Z,23.80
2019-03-21T13:54:22.947Z,23.25
2019-03-21T13:55:57.221Z,26.65
2019-03-21T13:57:31.521Z,28.05
2019-03-21T13:59:05.830Z,29.00
2019-03-21T14:00:41.193Z,30.57
2019-03-21T14:02:15.796Z,23.85
2019-03-21T14:03:50.121Z,26.37
2019-03-21T14:05:24.408Z,27.98
2019-03-21T14:06:58.637Z,27.80
2019-03-21T14:08:33.610Z,28.52
2019-03-21T14:10:09.513Z,44.15
2019-03-21T14:11:43.825Z,38.65
2019-03-21T14:13:19.171Z,60.20
2019-03-21T14:14:53.521Z,50.98
2019-03-21T14:16:27.813Z,29.65
2019-03-21T14:18:02.117Z,27.60
2019-03-21T14:19:36.370Z,25.97
2019-03-21T14:21:10.722Z,27.17
2019-03-21T14:22:44.958Z,22.87
2019-03-21T14:24:19.279Z,31.17
2019-03-21T14:25:53.591Z,27.58
2019-03-21T14:27:27.871Z,28.83
2019-03-21T14:29:12.112Z,29.12
2019-03-21T14:30:38.127Z,33.55
2019-03-21T14:32:12.446Z,36.63
2019-03-21T14:33:46.800Z,39.33
2019-03-21T14:35:25.792Z,35.92
2019-03-21T14:37:00.099Z,40.30
2019-03-21T14:38:34.415Z,31.20
2019-03-21T14:40:11.621Z,32.00
2019-03-21T14:41:46.132Z,32.70
2019-03-21T14:43:20.433Z,36.30
2019-03-21T14:44:54.736Z,37.50
2019-03-21T14:46:29.109Z,36.15
2019-03-21T14:48:03.441Z,38.90
2019-03-21T14:49:37.683Z,32.08
2019-03-21T14:51:11.922Z,39.95
2019-03-21T14:52:46.340Z,48.52
2019-03-21T14:54:20.659Z,45.17
2019-03-21T14:55:54.894Z,42.75
2019-03-21T14:57:29.221Z,42.17
2019-03-21T14:59:03.561Z,40.30
2019-03-21T15:00:37.801Z,43.23
2019-03-21T15:02:12.164Z,45.17
2019-03-21T15:03:46.437Z,47.80
2019-03-21T15:05:21.274Z,43.00
2019-03-21T15:06:55.590Z,42.78
2019-03-21T15:08:29.964Z,51.02
2019-03-21T15:10:06.921Z,55.15
2019-03-21T15:11:41.185Z,63.10
2019-03-21T15:13:15.451Z,59.05
2019-03-21T15:14:49.789Z,39.85
2019-03-21T15:16:24.117Z,33.65
2019-03-21T15:17:58.853Z,43.02
2019-03-21T15:19:33.528Z,39.40
2019-03-21T15:21:07.881Z,39.27
2019-03-21T15:22:42.123Z,50.98
2019-03-21T15:24:16.369Z,46.23
2019-03-21T15:25:51.142Z,39.27
2019-03-21T15:27:25.851Z,45.85
2019-03-21T15:29:00.205Z,49.80
2019-03-21T15:30:34.449Z,46.60
2019-03-21T15:32:08.781Z,43.00
2019-03-21T15:33:43.213Z,51.88
2019-03-21T15:35:19.569Z,50.73
2019-03-21T15:36:53.896Z,52.75
2019-03-21T15:38:28.212Z,71.15
2019-03-21T15:40:02.508Z,48.68
2019-03-21T15:41:38.001Z,39.03
2019-03-21T15:43:12.575Z,52.33
2019-03-21T15:44:46.835Z,43.08
2019-03-21T15:46:21.197Z,52.45
2019-03-21T15:47:55.497Z,44.20
2019-03-21T15:49:29.723Z,45.98
2019-03-21T15:51:05.112Z,43.65
2019-03-21T15:52:39.607Z,39.83
2019-03-21T15:54:13.820Z,53.00
2019-03-21T15:55:48.119Z,46.42
2019-03-21T15:57:22.477Z,46.28
2019-03-21T15:58:56.718Z,52.80
2019-03-21T16:00:35.959Z,45.65
2019-03-21T16:02:10.295Z,55.73
2019-03-21T16:03:44.555Z,67.87
2019-03-21T16:05:18.792Z,72.45
2019-03-21T16:06:53.094Z,81.40
2019-03-21T16:08:28.715Z,80.57
2019-03-21T16:10:03.316Z,105.60
2019-03-21T16:11:37.793Z,75.28
2019-03-21T16:13:12.057Z,165.07
2019-03-21T16:14:49.144Z,93.52
2019-03-21T16:16:22.296Z,59.15
2019-03-21T16:17:56.616Z,43.23
2019-03-21T16:19:30.877Z,46.85
2019-03-21T16:21:06.165Z,42.13
2019-03-21T16:22:40.797Z,55.55
2019-03-21T16:24:15.069Z,64.45
2019-03-21T16:25:49.389Z,44.03
2019-03-21T16:27:23.981Z,50.63
2019-03-21T16:28:58.209Z,51.55
2019-03-21T16:30:32.563Z,44.85
2019-03-21T16:32:06.851Z,51.30
2019-03-21T16:33:43.314Z,51.02
2019-03-21T16:35:17.038Z,65.87
2019-03-21T16:36:51.371Z,52.88
2019-03-21T16:38:25.698Z,50.55
2019-03-21T16:40:00.445Z,50.38
2019-03-21T16:41:34.669Z,50.90
2019-03-21T16:43:09.005Z,53.05
2019-03-21T16:44:43.449Z,60.60
2019-03-21T16:46:17.754Z,74.70
2019-03-21T16:47:51.956Z,86.65
2019-03-21T16:49:26.319Z,67.05
2019-03-21T16:51:02.884Z,52.17
2019-03-21T16:52:36.530Z,55.88
2019-03-21T16:54:17.127Z,67.25
2019-03-21T16:55:46.863Z,51.35
2019-03-21T16:57:21.187Z,55.38
2019-03-21T16:58:55.841Z,59.63
2019-03-21T17:00:30.253Z,61.55
2019-03-21T17:02:04.618Z,63.45
2019-03-21T17:03:38.928Z,61.37
2019-03-21T17:05:13.279Z,53.68
2019-03-21T17:06:47.592Z,58.48
2019-03-21T17:08:21.858Z,58.42
2019-03-21T17:09:57.979Z,54.33
2019-03-21T17:11:32.269Z,55.23
2019-03-21T17:13:07.392Z,56.48
2019-03-21T17:14:41.944Z,51.50
2019-03-21T17:16:16.182Z,45.00
2019-03-21T17:17:52.983Z,55.45
2019-03-21T17:19:27.334Z,58.87
2019-03-21T17:21:01.530Z,55.85
2019-03-21T17:22:35.877Z,59.45
2019-03-21T17:24:10.151Z,59.63
2019-03-21T17:25:44.527Z,47.53
2019-03-21T17:27:18.780Z,65.70
2019-03-21T17:28:53.076Z,67.37
2019-03-21T17:30:27.395Z,64.65
2019-03-21T17:32:01.658Z,72.03
2019-03-21T17:33:36.457Z,55.40
2019-03-21T17:35:12.485Z,52.55
2019-03-21T17:36:46.724Z,57.45
2019-03-21T17:38:21.055Z,70.15
2019-03-21T17:39:55.365Z,72.55
2019-03-21T17:41:29.669Z,61.75
2019-03-21T17:43:04.479Z,65.15
2019-03-21T17:44:38.836Z,72.45
2019-03-21T17:46:13.687Z,68.78
2019-03-21T17:47:47.942Z,64.40
2019-03-21T17:49:22.252Z,60.15
2019-03-21T17:50:56.611Z,63.83
2019-03-21T17:52:30.893Z,61.20
2019-03-21T17:54:05.191Z,58.08
2019-03-21T17:55:39.461Z,68.47
2019-03-21T17:57:13.795Z,67.27
2019-03-21T17:58:48.097Z,57.45
2019-03-21T18:00:36.620Z,69.55
2019-03-21T18:02:10.970Z,69.32
2019-03-21T18:03:45.565Z,59.45
2019-03-21T18:05:19.871Z,56.63
2019-03-21T18:06:54.136Z,52.48
2019-03-21T18:08:28.459Z,67.45
2019-03-21T18:10:03.453Z,66.53
2019-03-21T18:11:37.690Z,65.57
2019-03-21T18:13:12.022Z,59.18
2019-03-21T18:14:46.325Z,68.05
2019-03-21T18:16:20.665Z,66.35
2019-03-21T18:17:54.893Z,64.32
2019-03-21T18:19:29.212Z,54.70
2019-03-21T18:21:03.540Z,74.92
2019-03-21T18:22:37.760Z,62.65
2019-03-21T18:24:12.143Z,72.65
2019-03-21T18:25:46.403Z,67.70
2019-03-21T18:27:20.631Z,57.75
2019-03-21T18:28:54.893Z,61.40
2019-03-21T18:30:29.227Z,52.15
2019-03-21T18:32:03.547Z,55.58
2019-03-21T18:33:37.809Z,55.15
2019-03-21T18:35:13.149Z,53.85
2019-03-21T18:36:47.447Z,68.97
2019-03-21T18:38:21.681Z,82.02
2019-03-21T18:39:56.068Z,60.30
2019-03-21T18:41:30.329Z,61.80
2019-03-21T18:43:04.605Z,52.50
2019-03-21T18:44:38.839Z,55.05
2019-03-21T18:46:13.490Z,50.45
2019-03-21T18:47:48.337Z,55.35
2019-03-21T18:49:22.605Z,53.95
2019-03-21T18:50:56.829Z,50.95
2019-03-21T18:52:31.172Z,53.20
2019-03-21T18:54:05.478Z,50.60
2019-03-21T18:55:39.800Z,52.03
2019-03-21T18:57:14.082Z,56.50
2019-03-21T18:58:48.390Z,61.83
2019-03-21T19:00:22.672Z,64.05
2019-03-21T19:01:58.681Z,62.80
2019-03-21T19:03:32.994Z,59.73
2019-03-21T19:05:07.507Z,63.38
2019-03-21T19:06:41.740Z,56.83
2019-03-21T19:08:16.149Z,55.50
2019-03-21T19:09:50.347Z,61.77
2019-03-21T19:11:26.246Z,59.50
2019-03-21T19:13:00.609Z,69.47
2019-03-21T19:14:34.841Z,74.92
2019-03-21T19:16:09.090Z,66.37
2019-03-21T19:17:43.663Z,65.45
2019-03-21T19:19:18.011Z,56.45
2019-03-21T19:20:52.250Z,53.05
2019-03-21T19:22:26.496Z,56.60
2019-03-21T19:24:00.852Z,51.05
2019-03-21T19:25:35.105Z,54.65
2019-03-21T19:27:11.379Z,57.13
2019-03-21T19:28:45.395Z,53.65
2019-03-21T19:30:21.056Z,51.20
2019-03-21T19:31:55.377Z,53.75
2019-03-21T19:33:29.606Z,61.50
2019-03-21T19:35:04.903Z,52.85
2019-03-21T19:36:39.191Z,57.03
2019-03-21T19:38:14.426Z,50.98
2019-03-21T19:39:48.745Z,49.35
2019-03-21T19:41:23.093Z,50.45
2019-03-21T19:42:57.372Z,45.38
2019-03-21T19:44:31.613Z,49.83
2019-03-21T19:46:06.426Z,47.50
2019-03-21T19:47:40.773Z,51.05
2019-03-21T19:49:15.579Z,52.48
2019-03-21T19:50:51.309Z,48.33
2019-03-21T19:52:25.615Z,49.50
2019-03-21T19:53:59.866Z,53.60
2019-03-21T19:55:34.120Z,50.85
2019-03-21T19:57:08.413Z,45.33
2019-03-21T19:58:42.749Z,43.42
2019-03-21T20:00:23.934Z,45.92
2019-03-21T20:01:58.233Z,45.12
2019-03-21T20:03:32.557Z,50.65
2019-03-21T20:05:08.859Z,39.60
2019-03-21T20:06:43.207Z,45.73
2019-03-21T20:08:17.510Z,44.08
2019-03-21T20:09:51.858Z,43.80
2019-03-21T20:11:26.237Z,47.38
2019-03-21T20:13:00.541Z,45.00
2019-03-21T20:14:34.867Z,42.55
2019-03-21T20:16:09.207Z,49.00
2019-03-21T20:17:43.509Z,48.08
2019-03-21T20:19:19.920Z,45.50
2019-03-21T20:20:54.531Z,42.30